createdAt,value
2018-12-04T00:00:53.652Z,89.32
2018-12-04T00:03:24.227Z,93.12
2018-12-04T00:05:54.613Z,95.97
2018-12-04T00:08:25.379Z,104.90
2018-12-04T00:10:55.932Z,116.33
2018-12-04T00:13:26.427Z,117.97
2018-12-04T00:15:56.978Z,112.05
2018-12-04T00:18:27.477Z,111.72
2018-12-04T00:20:57.969Z,102.40
2018-12-04T00:23:28.512Z,97.37
2018-12-04T00:25:58.948Z,98.75
2018-12-04T00:28:29.620Z,87.10
2018-12-04T00:31:00.098Z,91.65
2018-12-04T00:33:30.569Z,105.90
2018-12-04T00:36:01.031Z,109.63
2018-12-04T00:38:31.451Z,113.32
2018-12-04T00:41:09.037Z,114.05
2018-12-04T00:43:39.778Z,119.10
2018-12-04T00:46:10.380Z,120.77
2018-12-04T00:48:40.896Z,124.47
2018-12-04T00:51:11.524Z,127.10
2018-12-04T00:53:42.020Z,120.20
2018-12-04T00:56:12.646Z,118.55
2018-12-04T00:58:43.185Z,116.67
2018-12-04T01:01:13.707Z,102.97
2018-12-04T01:03:44.178Z,99.15
2018-12-04T01:06:14.719Z,100.87
2018-12-04T01:08:45.653Z,92.75
2018-12-04T01:11:16.057Z,91.85
2018-12-04T01:13:46.719Z,91.97
2018-12-04T01:16:17.255Z,89.70
2018-12-04T01:18:47.976Z,89.60
2018-12-04T01:21:18.711Z,90.25
2018-12-04T01:23:49.542Z,88.42
2018-12-04T01:26:19.989Z,88.27
2018-12-04T01:28:50.955Z,88.27
2018-12-04T01:31:21.525Z,91.50
2018-12-04T01:33:51.984Z,90.12
2018-12-04T01:36:22.588Z,90.40
2018-12-04T01:38:53.158Z,91.50
2018-12-04T01:41:23.640Z,93.60
2018-12-04T01:43:54.328Z,94.83
2018-12-04T01:46:25.269Z,88.33
2018-12-04T01:48:55.751Z,89.45
2018-12-04T01:51:26.308Z,93.75
2018-12-04T01:53:56.843Z,95.67
2018-12-04T01:56:27.396Z,93.70
2018-12-04T01:58:57.838Z,90.42
2018-12-04T02:01:28.428Z,87.25
2018-12-04T02:04:00.920Z,88.75
2018-12-04T02:06:31.403Z,83.87
2018-12-04T02:09:01.892Z,80.65
2018-12-04T02:11:34.495Z,80.67
2018-12-04T02:14:05.064Z,83.82
2018-12-04T02:16:35.519Z,90.72
2018-12-04T02:19:05.989Z,98.97
2018-12-04T02:21:36.409Z,114.12
2018-12-04T02:24:07.419Z,127.15
2018-12-04T02:26:37.930Z,116.90
2018-12-04T02:29:08.658Z,109.37
2018-12-04T02:31:39.353Z,115.12
2018-12-04T02:34:09.941Z,113.72
2018-12-04T02:36:40.372Z,110.00
2018-12-04T02:39:10.902Z,99.58
2018-12-04T02:41:41.386Z,92.10
2018-12-04T02:44:12.101Z,84.60
2018-12-04T02:46:42.468Z,79.35
2018-12-04T02:49:13.236Z,75.92
2018-12-04T02:51:43.958Z,74.17
2018-12-04T02:54:14.412Z,75.97
2018-12-04T02:56:45.279Z,74.72
2018-12-04T02:59:15.816Z,67.30
2018-12-04T03:01:46.233Z,71.07
2018-12-04T03:04:16.931Z,72.17
2018-12-04T03:06:47.333Z,67.47
2018-12-04T03:09:17.878Z,67.27
2018-12-04T03:11:48.639Z,71.37
2018-12-04T03:14:19.091Z,83.95
2018-12-04T03:16:49.528Z,92.60
2018-12-04T03:19:20.232Z,99.28
2018-12-04T03:21:50.625Z,102.15
2018-12-04T03:24:21.267Z,113.90
2018-12-04T03:26:51.993Z,105.25
2018-12-04T03:29:22.499Z,112.85
2018-12-04T03:31:52.992Z,125.33
2018-12-04T03:34:23.581Z,122.25
2018-12-04T03:36:53.942Z,117.75
2018-12-04T03:39:24.427Z,291.40
2018-12-04T03:41:54.867Z,136.30
2018-12-04T03:44:25.343Z,147.30
2018-12-04T03:46:55.720Z,133.67
2018-12-04T03:49:26.205Z,138.37
2018-12-04T03:51:56.649Z,142.68
2018-12-04T03:54:27.315Z,134.57
2018-12-04T03:56:57.814Z,130.60
2018-12-04T03:59:28.256Z,131.35
2018-12-04T04:02:05.440Z,144.47
2018-12-04T04:04:35.966Z,154.12
2018-12-04T04:07:06.491Z,155.63
2018-12-04T04:09:37.338Z,154.63
2018-12-04T04:12:10.224Z,142.72
2018-12-04T04:14:40.684Z,152.82
2018-12-04T04:17:11.160Z,150.07
2018-12-04T04:19:41.686Z,159.82
2018-12-04T04:22:12.237Z,161.52
2018-12-04T04:24:42.830Z,165.85
2018-12-04T04:27:13.751Z,164.65
2018-12-04T04:29:44.211Z,154.65
2018-12-04T04:32:14.745Z,154.70
2018-12-04T04:34:45.457Z,165.82
2018-12-04T04:37:15.956Z,169.50
2018-12-04T04:39:46.376Z,155.35
2018-12-04T04:42:16.819Z,134.70
2018-12-04T04:44:47.348Z,118.90
2018-12-04T04:47:17.744Z,90.25
2018-12-04T04:49:48.300Z,80.72
2018-12-04T04:52:18.768Z,80.77
2018-12-04T04:54:49.196Z,72.70
2018-12-04T04:57:19.946Z,71.42
2018-12-04T04:59:50.620Z,71.70
2018-12-04T05:02:21.184Z,69.42
2018-12-04T05:04:51.997Z,74.77
2018-12-04T05:07:22.548Z,77.47
2018-12-04T05:09:53.131Z,79.97
2018-12-04T05:12:23.704Z,93.90
2018-12-04T05:14:54.516Z,89.83
2018-12-04T05:17:25.239Z,97.30
2018-12-04T05:19:55.803Z,108.07
2018-12-04T05:22:26.349Z,110.95
2018-12-04T05:24:56.763Z,131.52
2018-12-04T05:27:27.261Z,122.87
2018-12-04T05:29:57.684Z,109.80
2018-12-04T05:32:28.232Z,102.22
2018-12-04T05:34:59.014Z,100.95
2018-12-04T05:37:29.707Z,116.93
2018-12-04T05:40:00.411Z,120.60
2018-12-04T05:42:31.111Z,116.55
2018-12-04T05:45:01.725Z,102.07
2018-12-04T05:47:32.598Z,109.60
2018-12-04T05:50:03.161Z,116.20
2018-12-04T05:52:33.689Z,103.30
2018-12-04T05:55:04.210Z,102.22
2018-12-04T05:57:34.732Z,97.47
2018-12-04T06:00:06.407Z,95.53
2018-12-04T06:02:36.939Z,92.67
2018-12-04T06:05:07.591Z,88.93
2018-12-04T06:07:38.353Z,102.70
2018-12-04T06:10:08.824Z,104.80
2018-12-04T06:12:39.153Z,103.40
2018-12-04T06:15:10.110Z,116.63
2018-12-04T06:17:40.656Z,127.90
2018-12-04T06:20:11.284Z,106.53
2018-12-04T06:22:41.816Z,101.97
2018-12-04T06:25:12.302Z,101.83
2018-12-04T06:27:42.851Z,98.93
2018-12-04T06:30:13.224Z,102.30
2018-12-04T06:32:44.142Z,103.40
2018-12-04T06:35:14.753Z,105.60
2018-12-04T06:37:45.350Z,106.23
2018-12-04T06:40:15.828Z,109.13
2018-12-04T06:42:46.438Z,109.97
2018-12-04T06:45:16.970Z,112.53
2018-12-04T06:47:47.628Z,117.97
2018-12-04T06:50:18.166Z,113.73
2018-12-04T06:52:49.898Z,112.27
2018-12-04T06:55:20.425Z,127.77
2018-12-04T06:57:59.131Z,121.50
2018-12-04T07:00:29.984Z,118.37
2018-12-04T07:03:00.552Z,120.57
2018-12-04T07:05:32.040Z,123.00
2018-12-04T07:08:02.714Z,124.73
2018-12-04T07:10:33.594Z,136.53
2018-12-04T07:13:04.158Z,131.07
2018-12-04T07:15:34.661Z,129.50
2018-12-04T07:18:05.332Z,120.27
2018-12-04T07:20:36.329Z,117.67
2018-12-04T07:23:06.216Z,113.57
2018-12-04T07:25:36.736Z,120.53
2018-12-04T07:28:07.572Z,126.37
2018-12-04T07:30:37.956Z,123.17
2018-12-04T07:33:09.488Z,130.73
2018-12-04T07:35:40.160Z,126.10
2018-12-04T07:38:11.367Z,115.80
2018-12-04T07:40:42.161Z,123.10
2018-12-04T07:43:12.722Z,123.17
2018-12-04T07:45:43.163Z,133.20
2018-12-04T07:48:13.765Z,134.20
2018-12-04T07:50:44.355Z,131.00
2018-12-04T07:53:14.907Z,130.27
2018-12-04T07:55:46.317Z,134.20
2018-12-04T07:58:16.901Z,126.57
2018-12-04T08:00:47.413Z,128.50
2018-12-04T08:03:18.183Z,123.33
2018-12-04T08:05:48.693Z,120.63
2018-12-04T08:08:19.208Z,102.37
2018-12-04T08:10:49.722Z,110.57
2018-12-04T08:13:20.267Z,102.30
2018-12-04T08:15:50.729Z,100.07
2018-12-04T08:18:21.421Z,77.33
2018-12-04T08:20:52.146Z,78.77
2018-12-04T08:23:22.645Z,85.03
2018-12-04T08:25:53.112Z,86.43
2018-12-04T08:28:23.735Z,96.30
2018-12-04T08:30:54.529Z,86.17
2018-12-04T08:33:25.042Z,83.40
2018-12-04T08:35:55.610Z,77.03
2018-12-04T08:38:26.052Z,79.67
2018-12-04T08:40:56.550Z,81.87
2018-12-04T08:43:27.057Z,81.00
2018-12-04T08:45:57.851Z,79.97
2018-12-04T08:48:28.393Z,74.60
2018-12-04T08:50:58.880Z,75.30
2018-12-04T08:53:29.459Z,75.50
2018-12-04T08:56:00.069Z,69.03
2018-12-04T08:58:30.662Z,72.57
2018-12-04T09:01:01.338Z,72.77
2018-12-04T09:03:32.132Z,78.00
2018-12-04T09:06:05.171Z,83.07
2018-12-04T09:08:35.732Z,79.93
2018-12-04T09:11:06.535Z,81.87
2018-12-04T09:13:37.046Z,81.10
2018-12-04T09:16:07.778Z,82.17
2018-12-04T09:18:38.384Z,87.03
2018-12-04T09:21:08.989Z,82.43
2018-12-04T09:23:39.461Z,83.03
2018-12-04T09:26:10.216Z,80.10
2018-12-04T09:28:40.911Z,77.63
2018-12-04T09:31:11.592Z,79.83
2018-12-04T09:33:42.109Z,79.07
2018-12-04T09:36:12.709Z,78.97
2018-12-04T09:38:43.229Z,71.63
2018-12-04T09:41:13.904Z,74.23
2018-12-04T09:43:44.472Z,94.77
2018-12-04T09:46:14.990Z,87.83
2018-12-04T09:48:45.702Z,86.93
2018-12-04T09:51:16.262Z,90.30
2018-12-04T09:53:51.916Z,90.50
2018-12-04T09:56:19.678Z,84.60
2018-12-04T09:58:50.532Z,81.33
2018-12-04T10:01:20.947Z,78.17
2018-12-04T10:03:51.473Z,66.50
2018-12-04T10:06:21.881Z,62.13
2018-12-04T10:08:52.438Z,61.37
2018-12-04T10:11:22.988Z,58.73
2018-12-04T10:13:53.804Z,61.00
2018-12-04T10:16:24.441Z,56.60
2018-12-04T10:18:55.282Z,52.57
2018-12-04T10:21:25.894Z,49.10
2018-12-04T10:23:56.311Z,50.47
2018-12-04T10:26:27.806Z,47.33
2018-12-04T10:28:58.728Z,46.13
2018-12-04T10:31:29.408Z,46.23
2018-12-04T10:33:59.943Z,46.87
2018-12-04T10:36:30.526Z,47.90
2018-12-04T10:39:01.101Z,46.77
2018-12-04T10:41:31.575Z,47.47
2018-12-04T10:44:02.125Z,52.17
2018-12-04T10:46:32.580Z,53.17
2018-12-04T10:49:03.035Z,50.37
2018-12-04T10:51:33.888Z,49.60
2018-12-04T10:54:04.358Z,52.30
2018-12-04T10:56:34.902Z,48.03
2018-12-04T10:59:05.621Z,52.95
2018-12-04T11:01:41.711Z,49.73
2018-12-04T11:04:12.555Z,51.77
2018-12-04T11:06:44.552Z,57.93
2018-12-04T11:09:15.097Z,58.20
2018-12-04T11:11:45.688Z,67.87
2018-12-04T11:14:16.439Z,55.40
2018-12-04T11:16:47.005Z,56.43
2018-12-04T11:19:19.796Z,57.83
2018-12-04T11:21:50.304Z,57.83
2018-12-04T11:24:20.676Z,58.77
2018-12-04T11:26:51.347Z,59.50
2018-12-04T11:29:22.335Z,61.00
2018-12-04T11:31:52.922Z,60.60
2018-12-04T11:34:23.263Z,68.60
2018-12-04T11:36:53.864Z,64.73
2018-12-04T11:39:24.347Z,70.63
2018-12-04T11:41:55.067Z,70.57
2018-12-04T11:44:25.636Z,68.13
2018-12-04T11:46:56.141Z,69.47
2018-12-04T11:49:26.648Z,65.70
2018-12-04T11:51:57.511Z,67.87
2018-12-04T11:54:27.996Z,67.10
2018-12-04T11:56:58.503Z,68.83
2018-12-04T11:59:29.049Z,65.77
2018-12-04T12:01:59.798Z,73.33
2018-12-04T12:04:30.354Z,73.53
2018-12-04T12:07:03.118Z,68.20
2018-12-04T12:09:33.544Z,68.63
2018-12-04T12:12:04.312Z,69.33
2018-12-04T12:14:34.804Z,69.20
2018-12-04T12:17:05.549Z,66.10
2018-12-04T12:19:36.349Z,66.87
2018-12-04T12:22:06.840Z,69.60
2018-12-04T12:24:37.544Z,68.23
2018-12-04T12:27:08.068Z,78.10
2018-12-04T12:29:38.867Z,70.73
2018-12-04T12:32:09.507Z,65.87
2018-12-04T12:34:40.013Z,67.43
2018-12-04T12:37:10.599Z,70.53
2018-12-04T12:39:41.168Z,67.97
2018-12-04T12:42:12.869Z,77.00
2018-12-04T12:44:43.454Z,86.57
2018-12-04T12:47:14.011Z,76.73
2018-12-04T12:49:44.777Z,72.00
2018-12-04T12:52:17.397Z,74.33
2018-12-04T12:54:48.026Z,68.63
2018-12-04T12:57:18.631Z,63.87
2018-12-04T12:59:49.268Z,62.90
2018-12-04T13:02:19.899Z,63.40
2018-12-04T13:04:50.426Z,61.97
2018-12-04T13:07:20.989Z,61.20
2018-12-04T13:09:51.500Z,60.10
2018-12-04T13:12:22.074Z,62.93
2018-12-04T13:14:52.636Z,63.63
2018-12-04T13:17:23.124Z,61.53
2018-12-04T13:19:53.610Z,64.00
2018-12-04T13:22:24.084Z,69.23
2018-12-04T13:24:54.935Z,69.13
2018-12-04T13:27:25.556Z,67.67
2018-12-04T13:29:56.111Z,69.93
2018-12-04T13:32:26.881Z,59.03
2018-12-04T13:34:57.503Z,59.47
2018-12-04T13:37:28.406Z,59.20
2018-12-04T13:39:59.513Z,69.17
2018-12-04T13:42:30.146Z,73.53
2018-12-04T13:45:00.626Z,76.10
2018-12-04T13:47:31.245Z,82.57
2018-12-04T13:50:01.817Z,85.00
2018-12-04T13:52:32.312Z,79.43
2018-12-04T13:55:02.915Z,77.77
2018-12-04T13:57:33.443Z,80.47
2018-12-04T14:00:04.366Z,80.77
2018-12-04T14:02:35.132Z,88.97
2018-12-04T14:05:08.103Z,98.17
2018-12-04T14:07:38.906Z,94.53
2018-12-04T14:10:11.384Z,100.30
2018-12-04T14:12:41.836Z,107.23
2018-12-04T14:15:12.401Z,117.10
2018-12-04T14:17:42.878Z,117.20
2018-12-04T14:20:13.502Z,113.80
2018-12-04T14:22:44.072Z,108.97
2018-12-04T14:25:14.621Z,119.90
2018-12-04T14:27:49.095Z,131.13
2018-12-04T14:30:18.121Z,137.93
2018-12-04T14:32:48.897Z,127.77
2018-12-04T14:35:19.376Z,132.73
2018-12-04T14:37:49.984Z,125.97
2018-12-04T14:40:20.670Z,116.17
2018-12-04T14:42:55.374Z,109.33
2018-12-04T14:45:25.907Z,107.27
2018-12-04T14:47:56.595Z,102.53
2018-12-04T14:50:27.078Z,99.93
2018-12-04T14:52:57.679Z,100.43
2018-12-04T14:55:28.534Z,104.23
2018-12-04T14:57:59.208Z,101.80
2018-12-04T15:00:29.925Z,84.40
2018-12-04T15:03:00.511Z,71.83
2018-12-04T15:05:31.555Z,72.03
2018-12-04T15:08:02.158Z,69.73
2018-12-04T15:10:33.012Z,69.37
2018-12-04T15:13:03.480Z,69.80
2018-12-04T15:15:34.261Z,80.30
2018-12-04T15:18:04.808Z,80.20
2018-12-04T15:20:35.313Z,103.43
2018-12-04T15:23:05.995Z,136.00
2018-12-04T15:25:36.544Z,126.70
2018-12-04T15:28:08.971Z,126.30
2018-12-04T15:30:39.864Z,124.30
2018-12-04T15:33:10.408Z,122.43
2018-12-04T15:35:40.863Z,115.67
2018-12-04T15:38:11.593Z,114.53
2018-12-04T15:40:42.425Z,99.73
2018-12-04T15:43:13.286Z,83.27
2018-12-04T15:45:43.847Z,72.57
2018-12-04T15:48:17.237Z,72.77
2018-12-04T15:50:48.000Z,72.87
2018-12-04T15:53:19.600Z,71.47
2018-12-04T15:55:50.170Z,66.23
2018-12-04T15:58:20.781Z,66.00
2018-12-04T16:00:51.642Z,65.87
2018-12-04T16:03:22.262Z,66.47
2018-12-04T16:05:52.708Z,67.83
2018-12-04T16:08:23.374Z,69.00
2018-12-04T18:50:32.557Z,92.37
2018-12-04T18:53:03.524Z,97.87
2018-12-04T18:55:34.239Z,98.00
2018-12-04T18:58:05.370Z,115.67
2018-12-04T19:00:36.658Z,193.07
2018-12-04T19:03:07.119Z,117.57
2018-12-04T19:05:38.470Z,101.73
2018-12-04T19:08:09.490Z,101.73
2018-12-04T19:10:40.234Z,98.20
2018-12-04T19:13:10.937Z,101.97
2018-12-04T19:15:41.732Z,104.90
2018-12-04T19:18:12.218Z,114.03
2018-12-04T19:20:43.774Z,111.57
2018-12-04T19:23:14.592Z,109.03
2018-12-04T19:25:45.139Z,116.63
2018-12-04T19:28:15.854Z,132.07
2018-12-04T19:30:46.570Z,134.87
2018-12-04T19:33:18.283Z,132.03
2018-12-04T19:35:48.733Z,147.77
2018-12-04T19:38:19.394Z,146.57
2018-12-04T19:40:50.238Z,179.93
2018-12-04T19:43:20.861Z,172.63
2018-12-04T19:45:51.815Z,169.03
2018-12-04T19:48:22.399Z,165.07
2018-12-04T19:50:53.175Z,120.57
2018-12-04T19:53:24.501Z,105.13
2018-12-04T19:55:55.030Z,96.03
2018-12-04T19:58:25.440Z,86.03
2018-12-04T20:00:57.179Z,82.63
2018-12-04T20:03:27.893Z,82.90
2018-12-04T20:05:58.664Z,72.53
2018-12-04T20:08:33.498Z,66.93
2018-12-04T20:11:04.255Z,66.30
2018-12-04T20:13:35.164Z,65.93
2018-12-04T20:16:06.298Z,63.43
2018-12-04T20:18:36.846Z,66.03
2018-12-04T20:21:07.488Z,101.13
2018-12-04T20:23:38.133Z,76.13
2018-12-04T20:26:08.816Z,78.40
2018-12-04T20:28:39.465Z,83.10
2018-12-04T20:31:10.112Z,77.13
2018-12-04T20:33:40.764Z,83.87
2018-12-04T20:36:11.264Z,83.00
2018-12-04T20:38:42.711Z,89.97
2018-12-04T20:41:13.237Z,87.43
2018-12-04T20:43:43.943Z,87.60
2018-12-04T20:46:14.592Z,75.27
2018-12-04T20:48:45.664Z,75.00
2018-12-04T20:51:16.222Z,78.13
2018-12-04T20:53:46.706Z,81.97
2018-12-04T20:56:17.754Z,75.03
2018-12-04T20:58:48.809Z,79.27
2018-12-04T21:01:19.826Z,75.80
2018-12-04T21:03:50.643Z,74.93
2018-12-04T21:06:21.161Z,76.13
2018-12-04T21:08:51.964Z,78.57
2018-12-04T21:11:22.727Z,79.73
2018-12-04T21:13:54.265Z,77.30
2018-12-04T21:16:25.119Z,82.13
2018-12-04T21:18:56.104Z,80.87
2018-12-04T21:21:26.899Z,80.87
2018-12-04T21:23:57.672Z,81.27
2018-12-04T21:26:28.188Z,79.53
2018-12-04T21:29:03.964Z,78.93
2018-12-04T21:31:40.010Z,79.87
2018-12-04T21:34:15.558Z,79.83
2018-12-04T21:36:51.180Z,79.53
2018-12-04T21:39:40.360Z,80.13
2018-12-04T21:42:16.040Z,78.40
2018-12-04T21:44:51.561Z,81.73
2018-12-04T21:47:27.121Z,82.60
2018-12-04T21:49:57.666Z,82.50
2018-12-04T21:52:28.330Z,84.10
2018-12-04T21:54:59.005Z,83.47
2018-12-04T21:57:29.774Z,81.27
2018-12-04T22:00:00.371Z,82.33
2018-12-04T22:02:31.297Z,80.20
2018-12-04T22:05:02.055Z,80.97
2018-12-04T22:07:33.713Z,81.37
2018-12-04T22:10:04.297Z,83.07
2018-12-04T22:12:35.126Z,82.10
2018-12-04T22:15:05.950Z,80.53
2018-12-04T22:17:36.464Z,80.43
2018-12-04T22:20:07.513Z,82.10
2018-12-04T22:22:38.252Z,83.43
2018-12-04T22:25:08.817Z,78.07
2018-12-04T22:27:39.591Z,80.67
2018-12-04T22:30:10.534Z,81.80
2018-12-04T22:32:40.999Z,82.00
2018-12-04T22:35:12.067Z,84.13
2018-12-04T22:37:42.734Z,80.60
2018-12-04T22:40:13.612Z,82.80
2018-12-04T22:42:44.337Z,81.17
2018-12-04T22:45:20.309Z,89.53
2018-12-04T22:47:51.042Z,86.20
2018-12-04T22:50:22.062Z,85.90
2018-12-04T22:52:52.712Z,91.33
2018-12-04T22:55:23.857Z,93.87
2018-12-04T22:57:54.459Z,97.03
2018-12-04T23:00:33.785Z,100.97
2018-12-04T23:03:04.395Z,107.43
2018-12-04T23:05:34.967Z,106.97
2018-12-04T23:08:06.032Z,106.60
2018-12-04T23:10:36.602Z,106.90
2018-12-04T23:13:07.308Z,111.50
2018-12-04T23:15:37.814Z,111.93
2018-12-04T23:18:08.442Z,114.33
2018-12-04T23:20:39.140Z,111.40
2018-12-04T23:23:09.861Z,108.47
2018-12-04T23:25:40.376Z,112.90
2018-12-04T23:28:11.001Z,111.63
2018-12-04T23:30:41.691Z,111.97
2018-12-04T23:33:12.236Z,104.27
2018-12-04T23:35:42.888Z,93.80
2018-12-04T23:38:13.587Z,93.00
2018-12-04T23:40:44.791Z,93.10
2018-12-04T23:43:15.376Z,90.07
2018-12-04T23:45:45.726Z,87.30
2018-12-04T23:48:16.232Z,87.53
2018-12-04T23:50:46.825Z,90.33
2018-12-04T23:53:17.642Z,78.73
2018-12-04T23:55:48.402Z,80.47
2018-12-04T23:58:19.025Z,79.73
